Santa Fe Municipal Airport
KSAF : now visible

Airfield :











YOU CAN JOIN US ON...

 
LOGIN :

Register | Disclaimer

   EN    FR    IT 

 









Legend :    VFR   Marginal VFR   IFR   Intensive IFR   Very Intensive IFR
Visi :
Ceiling :
>= 8 km
>= 3000ft
5 to 8 km
1000 to 3000 ft
1500m to 5 km
500 to 1000 ft
800 to 1500m
200 to 500 ft
< 800m
< 200 ft
Symbols :   Thunderstorms  Fog  Heavy snow  Heavy precipitations  Wind > 20 kt






- Airport Elevation : 6348 ft


KSAF - Santa Fe Municipal

CURRENT METAR :
  • 191753Z 19004KT 10SM CLR 23/08 A3023 RMK AO2 SLP138 T02280078 10233 20117 58011

EXPIRED METARs :
  • 191653Z 02004KT 10SM CLR 22/11 A3025 RMK AO2 SLP151 T02220106
  • 191553Z 03006KT 10SM CLR 21/11 A3025 RMK AO2 SLP148 T02110111

TAF KSAF
Valid from the 19 at 18:00 until the 20 at 18:00 UTC


191731Z 1918/2018 12010KT P6SM SCT080 BKN120
FM200100 13010KT P6SM SCT070 BKN090
FM200900 03006KT P6SM -SHRA SCT040 OVC060
FM201200 05006KT 6SM -SHRA BR OVC015
KZAB FIR / North America



MET'MAP, your aeronautical weather chart ! - Copyright ORBIFLY December 2007 - Disclaimer

ORBIFLY MET'MAP TEAM :

Programming & Development : Alexandra Zaïnal
Original concept : Baudouin d'Aumeries
Technical & hardware support : Manuel Goepfert
Assistance : Marc-Olivier Méhu




SOURCES & CREDITS :

   NOAA       Earth
Advisory